createdAt,value
2023-08-12T00:00:55.197Z,1.17
2023-08-12T00:03:22.210Z,1.23
2023-08-12T00:05:48.828Z,1.48
2023-08-12T00:08:15.317Z,1.55
2023-08-12T00:10:41.939Z,1.05
2023-08-12T00:13:08.424Z,1.63
2023-08-12T00:15:35.456Z,1.50
2023-08-12T00:18:02.257Z,1.42
2023-08-12T00:20:29.028Z,1.67
2023-08-12T00:22:55.502Z,1.50
2023-08-12T00:25:22.006Z,1.02
2023-08-12T00:27:48.525Z,1.52
2023-08-12T00:30:15.395Z,1.67
2023-08-12T00:32:42.166Z,1.55
2023-08-12T00:35:09.059Z,1.10
2023-08-12T00:37:35.633Z,1.75
2023-08-12T00:40:02.186Z,1.45
2023-08-12T00:42:28.762Z,1.65
2023-08-12T00:44:55.264Z,1.23
2023-08-12T00:47:23.401Z,1.42
2023-08-12T00:49:50.911Z,1.77
2023-08-12T00:52:19.066Z,1.60
2023-08-12T00:54:45.797Z,1.42
2023-08-12T00:57:12.648Z,1.63
2023-08-12T00:59:42.922Z,1.15
2023-08-12T01:02:09.761Z,1.33
2023-08-12T01:04:36.565Z,1.10
2023-08-12T01:07:04.646Z,1.52
2023-08-12T01:09:31.554Z,1.48
2023-08-12T01:12:37.567Z,1.42
2023-08-12T01:15:15.567Z,1.27
2023-08-12T01:17:44.145Z,1.33
2023-08-12T01:20:15.723Z,1.33
2023-08-12T01:22:45.055Z,1.33
2023-08-12T01:25:11.599Z,1.15
2023-08-12T01:27:39.081Z,1.42
2023-08-12T01:30:07.214Z,1.40
2023-08-12T01:32:42.585Z,1.48
2023-08-12T01:35:42.516Z,1.35
2023-08-12T01:38:10.594Z,1.25
2023-08-12T01:40:39.232Z,1.40
2023-08-12T01:43:06.086Z,1.30
2023-08-12T01:45:33.313Z,1.10
2023-08-12T01:47:59.893Z,1.23
2023-08-12T01:50:26.929Z,1.15
2023-08-12T01:52:54.317Z,1.45
2023-08-12T01:55:20.912Z,1.23
2023-08-12T01:57:47.428Z,1.20
2023-08-12T02:00:14.134Z,1.55
2023-08-12T02:02:40.827Z,1.27
2023-08-12T02:05:07.683Z,1.35
2023-08-12T02:07:34.178Z,0.93
2023-08-12T02:10:00.767Z,1.40
2023-08-12T02:12:27.277Z,1.45
2023-08-12T02:14:56.707Z,1.50
2023-08-12T02:17:23.568Z,1.38
2023-08-12T02:19:50.026Z,1.42
2023-08-12T02:22:16.579Z,1.05
2023-08-12T02:24:43.214Z,1.20
2023-08-12T02:27:10.028Z,1.30
2023-08-12T02:29:36.763Z,1.23
2023-08-12T02:32:03.381Z,1.15
2023-08-12T02:34:29.916Z,1.70
2023-08-12T02:36:56.387Z,1.50
2023-08-12T02:39:23.417Z,1.15
2023-08-12T02:41:50.072Z,1.17
2023-08-12T02:44:16.679Z,1.10
2023-08-12T02:46:43.260Z,1.33
2023-08-12T02:49:09.768Z,1.92
2023-08-12T02:51:36.284Z,1.35
2023-08-12T02:54:02.789Z,1.33
2023-08-12T02:56:29.310Z,1.45
2023-08-12T02:58:55.935Z,1.23
2023-08-12T03:01:25.463Z,1.40
2023-08-12T03:03:52.007Z,1.10
2023-08-12T03:06:18.804Z,1.20
2023-08-12T03:08:45.324Z,1.33
2023-08-12T03:11:11.862Z,2.08
2023-08-12T03:13:38.407Z,1.27
2023-08-12T03:16:05.138Z,0.93
2023-08-12T03:18:31.707Z,0.95
2023-08-12T03:20:58.265Z,1.25
2023-08-12T03:23:25.427Z,1.33
2023-08-12T03:25:51.934Z,1.30
2023-08-12T03:28:18.476Z,1.40
2023-08-12T03:30:52.542Z,1.23
2023-08-12T03:33:19.767Z,1.38
2023-08-12T03:35:47.591Z,1.35
2023-08-12T03:38:14.524Z,1.33
2023-08-12T03:40:42.476Z,1.30
2023-08-12T03:43:09.059Z,1.40
2023-08-12T03:45:43.149Z,1.40
2023-08-12T03:48:09.999Z,1.40
2023-08-12T03:50:38.116Z,1.27
2023-08-12T03:53:05.365Z,1.20
2023-08-12T03:55:33.268Z,1.27
2023-08-12T03:58:03.384Z,1.13
2023-08-12T04:00:29.980Z,1.48
2023-08-12T04:02:56.743Z,1.63
2023-08-12T04:05:23.586Z,1.58
2023-08-12T04:07:50.137Z,2.20
2023-08-12T04:10:16.815Z,2.50
2023-08-12T04:12:44.716Z,2.35
2023-08-12T04:15:11.695Z,2.15
2023-08-12T04:17:38.543Z,2.03
2023-08-12T04:20:07.529Z,2.03
2023-08-12T04:22:34.127Z,2.03
2023-08-12T04:25:00.647Z,1.98
2023-08-12T04:27:27.139Z,2.25
2023-08-12T04:29:53.610Z,2.20
2023-08-12T04:32:20.066Z,1.73
2023-08-12T04:34:47.368Z,2.35
2023-08-12T04:37:14.116Z,2.42
2023-08-12T04:39:41.426Z,2.47
2023-08-12T04:42:07.922Z,2.50
2023-08-12T04:44:34.515Z,2.65
2023-08-12T04:47:00.981Z,3.15
2023-08-12T04:49:28.262Z,2.30
2023-08-12T04:51:55.039Z,2.65
2023-08-12T04:54:21.767Z,2.67
2023-08-12T04:56:48.282Z,2.83
2023-08-12T04:59:14.757Z,2.83
2023-08-12T05:01:54.449Z,3.05
2023-08-12T05:04:27.882Z,2.72
2023-08-12T05:06:56.601Z,3.13
2023-08-12T05:09:23.116Z,2.65
2023-08-12T05:11:49.606Z,2.83
2023-08-12T05:14:16.104Z,3.30
2023-08-12T05:16:42.688Z,3.38
2023-08-12T05:19:09.261Z,2.92
2023-08-12T05:21:35.916Z,2.67
2023-08-12T05:24:02.499Z,3.83
2023-08-12T05:26:29.290Z,3.45
2023-08-12T05:28:56.693Z,3.35
2023-08-12T05:31:23.313Z,3.55
2023-08-12T05:33:49.993Z,3.67
2023-08-12T05:36:16.567Z,3.45
2023-08-12T05:38:43.152Z,3.20
2023-08-12T05:41:09.761Z,3.50
2023-08-12T05:43:36.305Z,3.22
2023-08-12T05:46:02.891Z,4.53
2023-08-12T05:48:29.800Z,3.35
2023-08-12T05:50:56.637Z,3.92
2023-08-12T05:53:24.079Z,3.25
2023-08-12T05:55:50.658Z,3.25
2023-08-12T05:58:17.355Z,3.85
2023-08-12T06:00:46.575Z,3.05
2023-08-12T06:03:13.819Z,3.83
2023-08-12T06:05:42.425Z,3.10
2023-08-12T06:08:09.055Z,3.13
2023-08-12T06:10:37.643Z,3.33
2023-08-12T06:13:06.245Z,3.65
2023-08-12T06:15:34.175Z,3.80
2023-08-12T06:18:02.005Z,3.67
2023-08-12T06:20:28.587Z,3.40
2023-08-12T06:22:55.617Z,4.68
2023-08-12T06:25:22.203Z,4.13
2023-08-12T06:27:48.772Z,3.55
2023-08-12T06:30:15.393Z,3.38
2023-08-12T06:32:42.116Z,3.22
2023-08-12T06:35:09.266Z,3.50
2023-08-12T06:37:35.791Z,3.70
2023-08-12T06:40:02.308Z,5.78
2023-08-12T06:42:28.827Z,6.35
2023-08-12T06:44:58.337Z,9.52
2023-08-12T06:47:25.878Z,12.32
2023-08-12T06:49:52.430Z,11.77
2023-08-12T06:52:19.063Z,10.70
2023-08-12T06:54:45.598Z,7.82
2023-08-12T06:57:12.761Z,9.52
2023-08-12T06:59:39.730Z,8.18
2023-08-12T07:02:07.908Z,8.77
2023-08-12T07:04:34.406Z,7.53
2023-08-12T07:07:01.054Z,7.97
2023-08-12T07:09:27.618Z,8.05
2023-08-12T07:11:54.082Z,7.30
2023-08-12T07:14:20.653Z,6.32
2023-08-12T07:16:47.165Z,6.63
2023-08-12T07:19:16.596Z,5.97
2023-08-12T07:21:43.603Z,6.32
2023-08-12T07:24:10.177Z,5.15
2023-08-12T07:26:36.696Z,5.35
2023-08-12T07:29:03.253Z,4.80
2023-08-12T07:31:30.043Z,4.90
2023-08-12T07:33:57.797Z,3.90
2023-08-12T07:36:24.291Z,4.38
2023-08-12T07:38:50.820Z,5.13
2023-08-12T07:41:17.297Z,4.05
2023-08-12T07:43:43.947Z,4.85
2023-08-12T07:46:10.714Z,4.30
2023-08-12T07:48:38.428Z,4.53
2023-08-12T07:51:05.106Z,4.45
2023-08-12T07:53:31.605Z,4.43
2023-08-12T07:55:58.072Z,4.13
2023-08-12T07:58:24.585Z,4.20
2023-08-12T08:00:55.090Z,3.58
2023-08-12T08:03:21.895Z,3.78
2023-08-12T08:05:49.126Z,4.32
2023-08-12T08:08:15.720Z,3.85
2023-08-12T08:10:42.303Z,4.55
2023-08-12T08:13:08.885Z,3.58
2023-08-12T08:15:35.410Z,3.85
2023-08-12T08:18:03.506Z,4.22
2023-08-12T08:20:30.024Z,3.75
2023-08-12T08:22:56.887Z,4.05
2023-08-12T08:25:23.713Z,3.50
2023-08-12T08:27:50.506Z,4.07
2023-08-12T08:30:17.116Z,3.95
2023-08-12T08:32:43.795Z,3.33
2023-08-12T08:35:10.359Z,3.25
2023-08-12T08:37:36.913Z,3.85
2023-08-12T08:40:04.349Z,2.97
2023-08-12T08:42:32.051Z,3.42
2023-08-12T08:45:02.892Z,3.15
2023-08-12T08:47:29.642Z,3.97
2023-08-12T08:49:59.797Z,3.30
2023-08-12T08:52:27.249Z,3.72
2023-08-12T08:54:54.359Z,3.20
2023-08-12T08:57:38.931Z,2.83
2023-08-12T09:02:44.163Z,2.88
2023-08-12T09:05:12.381Z,3.15
2023-08-12T09:07:40.199Z,4.78
2023-08-12T09:10:08.642Z,2.92
2023-08-12T09:12:35.502Z,3.35
2023-08-12T09:15:02.034Z,2.90
2023-08-12T09:17:28.889Z,2.88
2023-08-12T09:19:55.938Z,2.78
2023-08-12T09:22:25.462Z,2.55
2023-08-12T09:24:59.108Z,2.78
2023-08-12T09:27:26.613Z,2.70
2023-08-12T09:29:58.764Z,2.53
2023-08-12T09:32:25.822Z,2.30
2023-08-12T09:34:55.901Z,2.15
2023-08-12T09:37:24.851Z,2.67
2023-08-12T09:39:52.886Z,2.97
2023-08-12T09:42:19.892Z,2.55
2023-08-12T09:44:47.374Z,2.05
2023-08-12T09:47:14.233Z,1.92
2023-08-12T09:49:41.280Z,2.28
2023-08-12T09:52:09.179Z,2.40
2023-08-12T09:54:36.388Z,2.63
2023-08-12T09:57:06.782Z,2.13
2023-08-12T09:59:36.241Z,1.98
2023-08-12T10:02:08.508Z,2.25
2023-08-12T10:04:42.583Z,2.58
2023-08-12T10:07:10.927Z,2.08
2023-08-12T10:09:38.780Z,2.65
2023-08-12T10:12:07.906Z,2.05
2023-08-12T10:14:40.364Z,2.08
2023-08-12T10:17:07.588Z,2.15
2023-08-12T10:19:35.732Z,1.95
2023-08-12T10:22:04.537Z,2.20
2023-08-12T10:24:32.387Z,2.35
2023-08-12T10:27:02.489Z,1.88
2023-08-12T10:29:31.928Z,2.22
2023-08-12T10:32:02.171Z,2.15
2023-08-12T10:34:29.614Z,2.00
2023-08-12T10:37:03.003Z,2.15
2023-08-12T10:39:33.277Z,2.05
2023-08-12T10:42:00.309Z,2.10
2023-08-12T10:44:39.271Z,1.65
2023-08-12T10:47:12.952Z,2.17
2023-08-12T10:49:43.698Z,1.98
2023-08-12T10:52:27.020Z,1.80
2023-08-12T10:54:53.778Z,2.30
2023-08-12T10:57:36.476Z,1.67
2023-08-12T11:00:04.563Z,1.92
2023-08-12T11:02:34.956Z,1.48
2023-08-12T11:05:08.162Z,1.67
2023-08-12T11:07:39.946Z,1.95
2023-08-12T11:10:28.085Z,1.33
2023-08-12T11:12:57.427Z,1.50
2023-08-12T11:15:36.251Z,1.55
2023-08-12T11:18:07.164Z,1.40
2023-08-12T11:23:02.120Z,1.42
2023-08-12T11:25:35.669Z,1.63
2023-08-12T11:28:02.578Z,1.58
2023-08-12T11:30:32.278Z,1.83
2023-08-12T11:33:01.162Z,1.42
2023-08-12T11:35:28.510Z,1.95
2023-08-12T11:37:57.308Z,1.63
2023-08-12T11:40:25.310Z,1.48
2023-08-12T11:42:52.795Z,2.00
2023-08-12T11:45:24.930Z,1.85
2023-08-12T11:47:55.562Z,2.08
2023-08-12T11:50:24.450Z,1.48
2023-08-12T11:52:52.051Z,1.52
2023-08-12T11:55:19.399Z,1.40
2023-08-12T11:57:46.568Z,2.42
2023-08-12T12:00:19.864Z,1.35
2023-08-12T12:02:51.136Z,1.45
2023-08-12T12:05:20.935Z,1.77
2023-08-12T12:07:50.522Z,2.40
2023-08-12T12:10:35.838Z,1.52
2023-08-12T12:13:04.628Z,1.75
2023-08-12T12:15:32.395Z,1.88
2023-08-12T12:18:00.020Z,1.70
2023-08-12T12:20:28.637Z,1.77
2023-08-12T12:22:56.097Z,1.65
2023-08-12T12:25:22.807Z,1.25
2023-08-12T12:27:49.435Z,1.35
2023-08-12T12:30:18.560Z,1.75
2023-08-12T12:32:46.325Z,1.73
2023-08-12T12:35:13.328Z,2.05
2023-08-12T12:37:39.884Z,1.83
2023-08-12T12:40:07.083Z,1.60
2023-08-12T12:42:33.719Z,1.45
2023-08-12T12:45:00.552Z,1.67
2023-08-12T12:47:27.164Z,1.70
2023-08-12T12:49:53.717Z,1.83
2023-08-12T12:52:20.206Z,1.77
2023-08-12T12:54:46.717Z,1.67
2023-08-12T12:57:13.212Z,1.55
2023-08-12T12:59:39.753Z,1.83
2023-08-12T13:02:06.335Z,1.55
2023-08-12T13:04:32.950Z,1.70
2023-08-12T13:06:59.620Z,1.65
2023-08-12T13:09:26.151Z,1.95
2023-08-12T13:11:52.670Z,1.80
2023-08-12T13:14:22.226Z,1.70
2023-08-12T13:16:49.145Z,1.50
2023-08-12T13:19:15.846Z,1.23
2023-08-12T13:21:42.401Z,1.40
2023-08-12T13:24:08.908Z,1.35
2023-08-12T13:26:35.533Z,1.63
2023-08-12T13:29:02.107Z,1.20
2023-08-12T13:31:37.578Z,1.35
2023-08-12T13:34:04.376Z,1.83
2023-08-12T13:36:31.775Z,1.23
2023-08-12T13:39:00.125Z,1.73
2023-08-12T13:41:29.721Z,1.50
2023-08-12T13:43:56.380Z,1.27
2023-08-12T13:46:23.019Z,1.45
2023-08-12T13:48:49.699Z,2.33
2023-08-12T13:51:16.179Z,1.38
2023-08-12T13:53:42.654Z,1.42
2023-08-12T13:56:09.431Z,1.38
2023-08-12T13:58:35.948Z,1.65
2023-08-12T14:01:04.747Z,1.65
2023-08-12T14:03:31.792Z,1.15
2023-08-12T14:05:58.916Z,1.55
2023-08-12T14:08:25.661Z,1.25
2023-08-12T14:10:52.342Z,1.55
2023-08-12T14:13:21.192Z,1.38
2023-08-12T14:15:47.669Z,1.10
2023-08-12T14:18:14.231Z,1.25
2023-08-12T14:20:40.908Z,1.20
2023-08-12T14:23:07.582Z,1.20
2023-08-12T14:25:34.090Z,1.90
2023-08-12T14:28:00.918Z,1.23
2023-08-12T14:30:27.676Z,1.45
2023-08-12T14:32:54.681Z,1.05
2023-08-12T14:35:21.637Z,1.52
2023-08-12T14:37:50.560Z,1.30
2023-08-12T14:40:17.240Z,1.30
2023-08-12T14:42:43.844Z,1.77
2023-08-12T14:45:11.328Z,1.23
2023-08-12T14:47:37.978Z,1.15
2023-08-12T14:50:05.383Z,1.50
2023-08-12T14:52:32.034Z,1.83
2023-08-12T14:54:59.001Z,1.52
2023-08-12T14:57:25.749Z,1.58
2023-08-12T14:59:52.503Z,1.33
2023-08-12T15:02:21.871Z,1.33
2023-08-12T15:04:48.461Z,1.83
2023-08-12T15:07:15.698Z,1.83
2023-08-12T15:09:42.761Z,1.55
2023-08-12T15:12:09.431Z,1.75
2023-08-12T15:14:36.011Z,1.73
2023-08-12T15:17:02.579Z,1.10
2023-08-12T15:19:30.257Z,1.88
2023-08-12T15:21:57.204Z,1.50
2023-08-12T15:24:23.733Z,1.75
2023-08-12T15:26:50.466Z,1.40
2023-08-12T15:29:16.990Z,1.63
2023-08-12T15:31:43.640Z,1.60
2023-08-12T15:34:10.281Z,1.35
2023-08-12T15:36:37.469Z,1.73
2023-08-12T15:39:04.056Z,1.50
2023-08-12T15:41:30.670Z,4.70
2023-08-12T15:43:57.182Z,1.42
2023-08-12T15:46:23.751Z,1.33
2023-08-12T15:48:50.405Z,1.80
2023-08-12T15:51:16.935Z,1.42
2023-08-12T15:53:43.425Z,1.40
2023-08-12T15:56:09.974Z,1.30
2023-08-12T15:58:36.834Z,1.73
2023-08-12T16:01:03.333Z,1.05
2023-08-12T16:03:30.709Z,1.23
2023-08-12T16:06:01.757Z,1.52
2023-08-12T16:08:28.790Z,1.42
2023-08-12T16:10:55.709Z,1.55
2023-08-12T16:13:22.437Z,2.00
2023-08-12T16:15:51.804Z,1.92
2023-08-12T16:18:18.426Z,1.33
2023-08-12T16:20:45.070Z,1.48
2023-08-12T16:23:11.835Z,1.25
2023-08-12T16:25:38.381Z,1.55
2023-08-12T16:28:05.291Z,1.40
2023-08-12T16:30:32.929Z,1.55
2023-08-12T16:33:00.264Z,1.40
2023-08-12T16:35:26.935Z,1.58
2023-08-12T16:37:54.284Z,1.73
2023-08-12T16:40:21.010Z,1.67
2023-08-12T16:42:47.686Z,1.58
2023-08-12T16:45:14.389Z,1.33
2023-08-12T16:47:41.211Z,1.50
2023-08-12T16:50:08.266Z,1.23
2023-08-12T16:52:34.881Z,1.23
2023-08-12T16:55:01.710Z,1.48
2023-08-12T16:57:28.656Z,1.30
2023-08-12T16:59:55.204Z,1.63
2023-08-12T17:02:21.944Z,1.23
2023-08-12T17:04:48.526Z,1.52
2023-08-12T17:07:15.155Z,1.15
2023-08-12T17:09:41.727Z,1.90
2023-08-12T17:12:08.520Z,1.63
2023-08-12T17:14:35.094Z,1.73
2023-08-12T17:17:02.530Z,2.17
2023-08-12T17:19:31.890Z,0.93
2023-08-12T17:21:58.663Z,1.45
2023-08-12T17:24:25.248Z,1.52
2023-08-12T17:26:51.861Z,0.93
2023-08-12T17:29:19.349Z,1.15
2023-08-12T17:31:45.839Z,1.33
2023-08-12T17:34:12.416Z,1.80
2023-08-12T17:36:39.028Z,1.38
2023-08-12T17:39:05.867Z,1.15
2023-08-12T17:41:32.438Z,1.25
2023-08-12T17:44:02.194Z,1.55
2023-08-12T17:46:29.840Z,1.27
2023-08-12T17:48:56.497Z,1.42
2023-08-12T17:51:23.239Z,1.25
2023-08-12T17:53:49.903Z,1.42
2023-08-12T17:56:17.428Z,1.33
2023-08-12T17:58:45.354Z,1.10
2023-08-12T18:01:13.124Z,1.17
2023-08-12T18:03:40.240Z,1.42
2023-08-12T18:06:06.954Z,1.10
2023-08-12T18:08:34.580Z,1.33
2023-08-12T18:11:04.733Z,1.70
2023-08-12T18:13:34.731Z,0.75
2023-08-12T18:16:01.440Z,1.13
2023-08-12T18:18:28.547Z,1.23
2023-08-12T18:20:56.952Z,1.65
2023-08-12T18:23:23.657Z,1.02
2023-08-12T18:25:50.286Z,1.13
2023-08-12T18:28:16.919Z,1.17
2023-08-12T18:30:43.583Z,1.23
2023-08-12T18:33:11.282Z,1.42
2023-08-12T18:35:37.844Z,1.52
2023-08-12T18:38:04.572Z,1.65
2023-08-12T18:40:33.601Z,0.93
2023-08-12T18:43:01.121Z,1.17
2023-08-12T18:45:30.006Z,1.45
2023-08-12T18:47:56.534Z,1.05
2023-08-12T18:50:24.090Z,1.65
2023-08-12T18:52:50.641Z,1.77
2023-08-12T18:55:17.496Z,0.82
2023-08-12T18:57:44.058Z,1.38
2023-08-12T19:00:14.613Z,0.88
2023-08-12T19:02:42.012Z,1.23
2023-08-12T19:05:09.644Z,1.25
2023-08-12T19:07:36.144Z,1.10
2023-08-12T19:10:06.893Z,2.13
2023-08-12T19:12:33.696Z,1.00
2023-08-12T19:15:00.549Z,1.65
2023-08-12T19:17:27.205Z,1.27
2023-08-12T19:19:53.691Z,1.40
2023-08-12T19:22:20.429Z,1.45
2023-08-12T19:24:46.973Z,1.15
2023-08-12T19:27:13.497Z,1.13
2023-08-12T19:29:40.097Z,1.48
2023-08-12T19:32:06.648Z,1.48
2023-08-12T19:34:34.508Z,1.02
2023-08-12T19:37:01.398Z,1.27
2023-08-12T19:39:28.072Z,1.13
2023-08-12T19:41:54.740Z,1.10
2023-08-12T19:44:24.629Z,1.58
2023-08-12T19:46:51.419Z,0.88
2023-08-12T19:49:17.941Z,1.35
2023-08-12T19:51:44.440Z,1.38
2023-08-12T19:54:11.004Z,1.83
2023-08-12T19:56:37.508Z,1.27
2023-08-12T19:59:04.325Z,1.88
2023-08-12T20:01:30.892Z,1.42
2023-08-12T20:03:58.170Z,1.45
2023-08-12T20:06:24.756Z,1.35
2023-08-12T20:08:51.552Z,1.63
2023-08-12T20:11:18.022Z,1.27
2023-08-12T20:13:45.045Z,2.50
2023-08-12T20:16:12.169Z,1.23
2023-08-12T20:18:38.780Z,1.33
2023-08-12T20:21:05.605Z,1.67
2023-08-12T20:23:32.226Z,1.08
2023-08-12T20:25:59.482Z,1.23
2023-08-12T20:28:26.001Z,1.60
2023-08-12T20:30:52.530Z,1.05
2023-08-12T20:33:24.675Z,1.23
2023-08-12T20:35:51.372Z,1.42
2023-08-12T20:38:19.486Z,1.17
2023-08-12T20:40:46.848Z,1.73
2023-08-12T20:43:13.354Z,1.25
2023-08-12T20:45:40.015Z,1.63
2023-08-12T20:48:06.991Z,1.50
2023-08-12T20:50:33.581Z,1.58
2023-08-12T20:53:06.157Z,1.60
2023-08-12T20:55:32.732Z,1.23
2023-08-12T20:57:59.429Z,1.35
2023-08-12T21:00:26.012Z,1.58
2023-08-12T21:02:52.561Z,1.65
2023-08-12T21:05:19.516Z,1.42
2023-08-12T21:07:46.203Z,1.10
2023-08-12T21:10:13.321Z,1.17
2023-08-12T21:12:40.026Z,1.30
2023-08-12T21:15:07.193Z,1.25
2023-08-12T21:17:33.809Z,1.20
2023-08-12T21:20:00.442Z,1.67
2023-08-12T21:22:26.983Z,2.38
2023-08-12T21:24:53.562Z,3.55
2023-08-12T21:27:20.297Z,1.42
2023-08-12T21:29:46.859Z,1.35
2023-08-12T21:32:13.788Z,1.30
2023-08-12T21:34:43.353Z,1.23
2023-08-12T21:37:09.945Z,1.27
2023-08-12T21:39:36.453Z,1.42
2023-08-12T21:42:03.231Z,1.33
2023-08-12T21:44:29.946Z,1.73
2023-08-12T21:46:56.495Z,1.05
2023-08-12T21:49:23.681Z,1.45
2023-08-12T21:51:50.272Z,1.55
2023-08-12T21:54:17.848Z,1.13
2023-08-12T21:56:44.403Z,1.55
2023-08-12T21:59:10.935Z,1.33
2023-08-12T22:01:37.403Z,1.42
2023-08-12T22:04:04.285Z,1.35
2023-08-12T22:06:30.960Z,1.17
2023-08-12T22:09:00.295Z,1.60
2023-08-12T22:11:29.301Z,1.67
2023-08-12T22:13:56.032Z,1.52
2023-08-12T22:16:22.627Z,1.30
2023-08-12T22:18:49.183Z,1.52
2023-08-12T22:21:15.704Z,1.30
2023-08-12T22:23:42.240Z,1.27
2023-08-12T22:26:08.830Z,1.20
2023-08-12T22:28:35.347Z,1.60
2023-08-12T22:31:01.996Z,1.55
2023-08-12T22:33:29.407Z,1.20
2023-08-12T22:35:55.937Z,1.70
2023-08-12T22:38:22.524Z,1.35
2023-08-12T22:40:49.115Z,1.42
2023-08-12T22:43:15.675Z,1.40
2023-08-12T22:45:44.416Z,1.83
2023-08-12T22:48:10.958Z,2.05
2023-08-12T22:50:38.154Z,1.67
2023-08-12T22:53:04.977Z,1.88
2023-08-12T22:55:31.539Z,1.60
2023-08-12T22:57:58.660Z,1.42
2023-08-12T23:00:25.360Z,1.65
2023-08-12T23:02:52.176Z,1.60
2023-08-12T23:05:19.036Z,1.67
2023-08-12T23:07:45.571Z,1.75
2023-08-12T23:10:12.257Z,1.73
2023-08-12T23:12:38.839Z,1.48
2023-08-12T23:15:05.969Z,1.65
2023-08-12T23:17:32.596Z,1.33
2023-08-12T23:19:59.504Z,2.10
2023-08-12T23:22:26.088Z,1.65
2023-08-12T23:24:52.593Z,1.52
2023-08-12T23:27:19.199Z,1.50
2023-08-12T23:29:45.686Z,1.83
2023-08-12T23:32:12.593Z,1.52
2023-08-12T23:34:39.352Z,1.15
2023-08-12T23:37:05.956Z,1.38
2023-08-12T23:39:32.547Z,2.10
2023-08-12T23:41:59.545Z,1.73
2023-08-12T23:44:26.080Z,1.73
2023-08-12T23:46:52.677Z,1.48
2023-08-12T23:49:19.800Z,1.38
2023-08-12T23:51:46.444Z,1.55
2023-08-12T23:54:13.116Z,1.38
2023-08-12T23:56:39.659Z,1.38
2023-08-12T23:59:06.202Z,1.80
